createdAt,value
2018-08-19T00:03:42.702Z,2.20
2018-08-19T00:09:08.182Z,2.40
2018-08-19T00:14:31.622Z,2.30
2018-08-19T00:19:52.270Z,2.10
2018-08-19T00:25:17.441Z,2.30
2018-08-19T00:30:39.062Z,2.30
2018-08-19T00:35:59.873Z,2.73
2018-08-19T00:41:21.381Z,2.43
2018-08-19T00:46:42.182Z,2.57
2018-08-19T00:52:03.674Z,2.23
2018-08-19T00:57:29.234Z,2.33
2018-08-19T01:02:54.739Z,2.43
2018-08-19T01:08:19.591Z,2.70
2018-08-19T01:13:40.278Z,2.03
2018-08-19T01:19:01.932Z,2.13
2018-08-19T01:24:22.741Z,2.47
2018-08-19T01:29:45.494Z,2.30
2018-08-19T01:35:06.358Z,2.30
2018-08-19T01:40:26.917Z,2.23
2018-08-19T01:45:48.009Z,2.30
2018-08-19T01:51:08.722Z,2.13
2018-08-19T01:56:29.270Z,2.27
2018-08-19T02:01:57.409Z,2.17
2018-08-19T02:07:18.069Z,2.07
2018-08-19T02:12:39.602Z,2.20
2018-08-19T02:18:07.348Z,2.30
2018-08-19T02:23:27.936Z,2.20
2018-08-19T02:28:48.586Z,2.23
2018-08-19T02:34:09.638Z,2.30
2018-08-19T02:39:30.157Z,2.30
2018-08-19T02:44:51.176Z,2.43
2018-08-19T02:50:11.813Z,2.13
2018-08-19T02:55:32.357Z,2.20
2018-08-19T03:00:53.682Z,2.27
2018-08-19T03:06:14.429Z,2.43
2018-08-19T03:11:35.002Z,2.23
2018-08-19T03:16:55.898Z,2.30
2018-08-19T03:22:16.591Z,2.07
2018-08-19T03:27:37.158Z,2.43
2018-08-19T03:33:01.993Z,2.20
2018-08-19T03:38:23.805Z,2.30
2018-08-19T03:43:49.416Z,2.40
2018-08-19T03:49:09.924Z,2.57
2018-08-19T03:54:30.549Z,2.17
2018-08-19T03:59:51.107Z,2.07
2018-08-19T04:05:12.013Z,1.90
2018-08-19T04:10:32.555Z,2.20
2018-08-19T04:15:53.545Z,2.20
2018-08-19T04:21:15.295Z,2.47
2018-08-19T04:26:35.829Z,2.20
2018-08-19T04:31:56.722Z,2.20
2018-08-19T04:37:17.513Z,2.17
2018-08-19T04:42:38.082Z,2.13
2018-08-19T04:47:58.618Z,2.50
2018-08-19T04:53:19.158Z,2.30
2018-08-19T04:58:39.717Z,2.23
2018-08-19T05:04:00.271Z,2.30
2018-08-19T05:09:20.842Z,2.13
2018-08-19T05:14:41.380Z,2.20
2018-08-19T05:20:16.987Z,2.20
2018-08-19T05:26:12.970Z,2.30
2018-08-19T05:31:34.242Z,2.23
2018-08-19T05:36:56.371Z,2.40
2018-08-19T05:42:16.932Z,2.07
2018-08-19T05:47:37.611Z,2.53
2018-08-19T05:52:58.241Z,2.23
2018-08-19T05:58:19.130Z,2.30
2018-08-19T06:03:39.962Z,2.60
2018-08-19T06:09:00.926Z,2.20
2018-08-19T06:14:21.517Z,2.50
2018-08-19T06:19:42.439Z,2.60
2018-08-19T06:25:03.070Z,2.60
2018-08-19T06:30:23.722Z,2.30
2018-08-19T06:35:44.345Z,2.43
2018-08-19T06:41:04.926Z,2.43
2018-08-19T06:46:25.551Z,2.50
2018-08-19T06:51:46.262Z,2.63
2018-08-19T06:57:07.644Z,2.27
2018-08-19T07:02:29.518Z,2.73
2018-08-19T07:07:50.806Z,2.30
2018-08-19T07:13:14.129Z,2.33
2018-08-19T07:18:35.335Z,2.50
2018-08-19T07:23:55.957Z,2.30
2018-08-19T07:29:21.099Z,2.33
2018-08-19T07:34:41.774Z,2.10
2018-08-19T07:40:02.294Z,2.23
2018-08-19T07:45:22.875Z,2.30
2018-08-19T07:50:43.466Z,2.40
2018-08-19T07:56:04.024Z,2.03
2018-08-19T08:01:27.225Z,2.40
2018-08-19T08:06:47.784Z,2.27
2018-08-19T08:12:08.448Z,2.43
2018-08-19T08:17:29.067Z,2.43
2018-08-19T08:22:49.629Z,2.53
2018-08-19T08:28:10.220Z,11.63
2018-08-19T08:33:30.873Z,92.33
2018-08-19T08:38:51.496Z,66.43
2018-08-19T08:44:12.120Z,47.50
2018-08-19T08:49:37.715Z,41.53
2018-08-19T08:55:03.243Z,38.30
2018-08-19T09:00:23.885Z,28.60
2018-08-19T09:05:44.585Z,23.67
2018-08-19T09:11:05.863Z,17.53
2018-08-19T09:16:26.522Z,11.70
2018-08-19T09:21:47.112Z,9.10
2018-08-19T09:27:07.771Z,7.63
2018-08-19T09:32:28.427Z,6.53
2018-08-19T09:37:49.660Z,6.30
2018-08-19T09:43:10.795Z,5.63
2018-08-19T09:48:31.998Z,4.50
2018-08-19T09:53:52.578Z,4.17
2018-08-19T09:59:13.647Z,3.10
2018-08-19T10:04:36.737Z,3.30
2018-08-19T10:10:00.388Z,4.00
2018-08-19T10:15:22.930Z,3.60
2018-08-19T10:20:46.148Z,3.27
2018-08-19T10:26:07.559Z,3.60
2018-08-19T10:31:28.410Z,2.97
2018-08-19T10:36:49.274Z,2.47
2018-08-19T10:42:22.597Z,2.17
2018-08-19T10:47:43.322Z,2.00
2018-08-19T10:53:04.318Z,2.20
2018-08-19T10:58:24.918Z,2.10
2018-08-19T11:03:45.826Z,1.97
2018-08-19T11:09:06.996Z,1.90
2018-08-19T11:14:27.598Z,2.03
2018-08-19T11:19:51.428Z,1.47
2018-08-19T11:25:12.111Z,1.63
2018-08-19T11:30:33.663Z,1.77
2018-08-19T11:35:54.217Z,1.70
2018-08-19T11:41:14.787Z,2.07
2018-08-19T11:46:35.580Z,1.50
2018-08-19T11:52:04.889Z,2.10
2018-08-19T11:57:26.091Z,2.03
2018-08-19T12:02:47.722Z,35.07
2018-08-19T12:08:09.048Z,9.10
2018-08-19T12:13:31.020Z,4.90
2018-08-19T12:18:51.953Z,3.17
2018-08-19T12:24:25.284Z,2.47
2018-08-19T12:29:46.896Z,2.60
2018-08-19T12:35:07.582Z,2.90
2018-08-19T12:40:28.634Z,2.87
2018-08-19T12:45:49.226Z,3.33
2018-08-19T12:51:09.921Z,38.57
2018-08-19T12:56:30.535Z,16.97
2018-08-19T13:01:51.397Z,5.73
2018-08-19T13:07:15.133Z,4.27
2018-08-19T13:13:07.634Z,3.50
2018-08-19T13:18:34.423Z,2.93
2018-08-19T13:23:55.250Z,2.90
2018-08-19T13:29:15.779Z,2.43
2018-08-19T13:34:36.349Z,2.43
2018-08-19T13:39:57.019Z,2.47
2018-08-19T13:45:18.988Z,2.73
2018-08-19T13:50:39.670Z,2.30
2018-08-19T13:56:01.102Z,2.07
2018-08-19T14:01:21.695Z,2.23
2018-08-19T14:06:44.446Z,1.83
2018-08-19T14:12:05.377Z,2.37
2018-08-19T14:17:28.494Z,2.10
2018-08-19T14:22:52.926Z,2.23
2018-08-19T14:28:14.635Z,2.00
2018-08-19T14:33:38.924Z,2.30
2018-08-19T14:38:59.727Z,2.23
2018-08-19T14:44:20.307Z,2.53
2018-08-19T14:49:40.889Z,3.53
2018-08-19T14:55:03.800Z,3.33
2018-08-19T15:00:24.914Z,3.47
2018-08-19T15:05:59.722Z,3.23
2018-08-19T15:11:20.491Z,4.00
2018-08-19T15:16:41.083Z,3.73
2018-08-19T15:22:02.043Z,4.57
2018-08-19T15:27:23.731Z,5.03
2018-08-19T15:32:45.045Z,5.47
2018-08-19T15:38:05.388Z,6.00
2018-08-19T15:43:26.126Z,5.67
2018-08-19T15:48:51.889Z,5.57
2018-08-19T15:54:14.739Z,5.73
2018-08-19T15:59:41.497Z,5.87
2018-08-19T16:05:05.571Z,6.10
2018-08-19T16:10:26.399Z,5.70
2018-08-19T16:15:49.501Z,5.30
2018-08-19T16:21:12.158Z,5.53
2018-08-19T16:26:41.304Z,4.97
2018-08-19T16:32:03.913Z,4.87
2018-08-19T16:37:30.773Z,4.33
2018-08-19T16:42:55.669Z,4.13
2018-08-19T16:48:17.097Z,4.47
2018-08-19T16:53:37.698Z,3.97
2018-08-19T16:58:58.568Z,4.13
2018-08-19T17:04:22.298Z,4.67
2018-08-19T17:09:43.227Z,4.77
2018-08-19T17:15:04.716Z,4.50
2018-08-19T17:20:25.302Z,4.50
2018-08-19T17:25:46.210Z,4.17
2018-08-19T17:31:06.938Z,4.67
2018-08-19T17:36:33.367Z,4.70
2018-08-19T17:41:54.908Z,5.37
2018-08-19T17:47:15.685Z,5.63
2018-08-19T17:52:36.253Z,6.00
2018-08-19T17:57:58.511Z,5.80
2018-08-19T18:03:20.999Z,5.97
2018-08-19T18:08:46.463Z,5.50
2018-08-19T18:14:07.175Z,5.60
2018-08-19T18:19:27.762Z,4.90
2018-08-19T18:24:56.268Z,5.10
2018-08-19T18:30:22.913Z,5.07
2018-08-19T18:35:43.855Z,4.73
2018-08-19T18:41:04.515Z,4.80
2018-08-19T18:46:25.423Z,4.23
2018-08-19T18:51:48.163Z,4.33
2018-08-19T18:57:09.832Z,4.10
2018-08-19T19:02:31.205Z,3.67
2018-08-19T19:07:52.002Z,3.80
2018-08-19T19:29:13.712Z,4.17
2018-08-19T19:34:34.332Z,3.70
2018-08-19T19:40:01.076Z,3.50
2018-08-19T19:45:21.635Z,3.50
2018-08-19T19:50:42.185Z,3.37
2018-08-19T19:56:06.835Z,3.43
2018-08-19T20:01:27.351Z,2.87
2018-08-19T20:06:47.917Z,3.13
2018-08-19T20:12:14.450Z,2.93
2018-08-19T20:17:35.042Z,3.50
2018-08-19T20:22:56.028Z,3.17
2018-08-19T20:28:16.585Z,3.10
2018-08-19T20:33:37.204Z,3.37
2018-08-19T20:38:58.018Z,3.20
2018-08-19T20:44:19.614Z,3.40
2018-08-19T20:49:40.339Z,3.13
2018-08-19T20:55:02.189Z,3.10
2018-08-19T21:00:22.862Z,3.17
2018-08-19T21:05:43.417Z,3.40
2018-08-19T21:11:04.127Z,3.27
2018-08-19T21:16:24.663Z,3.60
2018-08-19T21:21:45.261Z,3.80
2018-08-19T21:27:05.968Z,3.40
2018-08-19T21:32:27.578Z,3.33
2018-08-19T21:37:49.785Z,3.47
2018-08-19T21:43:10.695Z,3.43
2018-08-19T21:48:31.543Z,3.63
2018-08-19T21:53:52.294Z,3.27
2018-08-19T21:59:20.819Z,3.80
2018-08-19T22:04:41.389Z,3.47
2018-08-19T22:10:02.116Z,3.60
2018-08-19T22:15:28.640Z,3.23
2018-08-19T22:21:04.671Z,3.07
2018-08-19T22:26:26.922Z,3.00
2018-08-19T22:31:47.783Z,2.70
2018-08-19T22:37:08.639Z,3.27
2018-08-19T22:42:29.331Z,2.80
2018-08-19T22:47:50.485Z,2.60
2018-08-19T22:53:11.469Z,2.50
2018-08-19T22:58:32.397Z,2.37
2018-08-19T23:04:02.597Z,2.83
2018-08-19T23:09:23.109Z,2.50
2018-08-19T23:14:54.182Z,2.37
2018-08-19T23:20:14.767Z,2.50
2018-08-19T23:25:35.303Z,2.27
2018-08-19T23:30:56.099Z,2.30
2018-08-19T23:36:16.624Z,2.50
2018-08-19T23:41:37.798Z,2.70
2018-08-19T23:46:58.317Z,2.30
2018-08-19T23:52:18.837Z,2.30
2018-08-19T23:57:39.356Z,2.20
